createdAt,value
2019-03-04T00:00:49.971Z,0.0
2019-03-04T00:03:28.874Z,0.0
2019-03-04T00:06:28.542Z,0.0
2019-03-04T00:09:28.686Z,0.0
2019-03-04T00:12:28.448Z,0.0
2019-03-04T00:15:29.534Z,0.0
2019-03-04T00:18:28.572Z,0.0
2019-03-04T00:21:28.321Z,0.0
2019-03-04T00:24:29.087Z,0.0
2019-03-04T00:27:28.702Z,0.0
2019-03-04T00:30:28.350Z,0.0
2019-03-04T00:33:29.062Z,0.0
2019-03-04T00:36:28.868Z,0.0
2019-03-04T00:39:28.517Z,0.0
2019-03-04T00:42:29.425Z,0.0
2019-03-04T00:45:29.143Z,0.0
2019-03-04T00:48:28.976Z,0.0
2019-03-04T00:51:28.813Z,0.0
2019-03-04T00:54:28.506Z,0.0
2019-03-04T00:57:29.228Z,0.0
2019-03-04T01:00:29.273Z,0.0
2019-03-04T01:03:28.963Z,0.0
2019-03-04T01:06:28.751Z,0.0
2019-03-04T01:09:28.788Z,0.0
2019-03-04T01:12:28.711Z,0.0
2019-03-04T01:15:28.342Z,0.0
2019-03-04T01:18:29.077Z,0.0
2019-03-04T01:21:28.857Z,0.0
2019-03-04T01:24:28.770Z,0.0
2019-03-04T01:27:28.741Z,0.0
2019-03-04T01:30:28.638Z,0.0
2019-03-04T01:33:28.492Z,0.0
2019-03-04T01:36:28.171Z,0.0
2019-03-04T01:39:28.820Z,0.0
2019-03-04T01:42:28.461Z,0.0
2019-03-04T01:45:29.181Z,0.0
2019-03-04T01:48:28.798Z,0.0
2019-03-04T01:51:28.387Z,0.0
2019-03-04T01:54:29.106Z,0.0
2019-03-04T01:57:28.798Z,0.0
2019-03-04T02:00:28.814Z,0.0
2019-03-04T02:03:28.572Z,0.0
2019-03-04T02:06:28.378Z,0.0
2019-03-04T02:09:29.908Z,0.0
2019-03-04T02:12:28.560Z,0.0
2019-03-04T02:15:28.120Z,0.0
2019-03-04T02:18:28.877Z,0.0
2019-03-04T02:21:28.717Z,0.0
2019-03-04T02:24:29.199Z,0.0
2019-03-04T02:27:29.050Z,0.0
2019-03-04T02:30:29.499Z,0.0
2019-03-04T02:33:28.386Z,0.0
2019-03-04T02:36:28.970Z,0.0
2019-03-04T02:39:28.924Z,0.0
2019-03-04T02:42:28.656Z,0.0
2019-03-04T02:45:28.524Z,0.0
2019-03-04T02:48:28.217Z,0.0
2019-03-04T02:51:28.939Z,0.0
2019-03-04T02:54:29.060Z,0.0
2019-03-04T02:57:28.910Z,0.0
2019-03-04T03:00:28.734Z,0.0
2019-03-04T03:03:28.461Z,0.0
2019-03-04T03:06:29.521Z,0.0
2019-03-04T03:09:28.345Z,0.0
2019-03-04T03:12:29.159Z,0.0
2019-03-04T03:15:29.065Z,0.0
2019-03-04T03:18:29.026Z,0.0
2019-03-04T03:21:28.687Z,0.0
2019-03-04T03:24:28.387Z,0.0
2019-03-04T03:27:28.886Z,0.0
2019-03-04T03:30:28.726Z,0.0
2019-03-04T03:33:28.432Z,0.0
2019-03-04T03:36:28.194Z,0.0
2019-03-04T03:39:29.259Z,0.0
2019-03-04T03:42:32.524Z,0.0
2019-03-04T03:45:28.105Z,0.0
2019-03-04T03:48:28.747Z,0.0
2019-03-04T03:51:28.556Z,0.0
2019-03-04T03:54:28.287Z,0.0
2019-03-04T03:57:33.966Z,0.0
2019-03-04T04:00:28.785Z,0.0
2019-03-04T04:03:28.347Z,0.0
2019-03-04T04:06:28.855Z,0.0
2019-03-04T04:09:28.740Z,0.0
2019-03-04T04:12:28.397Z,0.0
2019-03-04T04:15:29.447Z,0.0
2019-03-04T04:18:28.302Z,0.0
2019-03-04T04:21:29.016Z,0.0
2019-03-04T04:24:28.917Z,0.0
2019-03-04T04:27:28.605Z,0.0
2019-03-04T04:30:29.093Z,0.0
2019-03-04T04:33:28.765Z,0.0
2019-03-04T04:36:28.350Z,0.0
2019-03-04T04:39:28.873Z,0.0
2019-03-04T04:42:28.445Z,0.0
2019-03-04T04:45:29.102Z,0.0
2019-03-04T04:48:28.801Z,0.0
2019-03-04T04:51:28.322Z,0.0
2019-03-04T04:54:29.137Z,0.0
2019-03-04T04:57:28.840Z,0.0
2019-03-04T05:00:28.540Z,0.0
2019-03-04T05:03:29.103Z,0.0
2019-03-04T05:06:30.373Z,0.0
2019-03-04T05:09:29.014Z,0.0
2019-03-04T05:12:28.667Z,0.0
2019-03-04T05:15:28.756Z,0.0
2019-03-04T05:18:28.725Z,0.0
2019-03-04T05:21:28.562Z,0.0
2019-03-04T05:24:29.657Z,0.0
2019-03-04T05:27:28.721Z,0.0
2019-03-04T05:30:28.645Z,0.0
2019-03-04T05:33:28.411Z,0.0
2019-03-04T05:36:29.239Z,0.0
2019-03-04T05:39:28.825Z,0.0
2019-03-04T05:42:28.479Z,0.0
2019-03-04T05:45:29.138Z,0.0
2019-03-04T05:48:28.782Z,0.0
2019-03-04T05:51:28.478Z,0.0
2019-03-04T05:54:29.427Z,0.0
2019-03-04T05:57:29.055Z,0.0
2019-03-04T06:00:30.160Z,0.0
2019-03-04T06:03:28.915Z,0.0
2019-03-04T06:06:47.548Z,0.0
2019-03-04T06:09:28.705Z,0.0
2019-03-04T06:12:28.376Z,0.0
2019-03-04T06:15:29.152Z,0.0
2019-03-04T06:18:28.896Z,0.0
2019-03-04T06:21:28.697Z,0.0
2019-03-04T06:24:28.361Z,0.0
2019-03-04T06:27:29.363Z,0.0
2019-03-04T06:30:29.489Z,0.0
2019-03-04T06:33:28.387Z,0.0
2019-03-04T06:36:29.128Z,0.01
2019-03-04T06:39:28.815Z,0.0
2019-03-04T06:42:28.530Z,0.04
2019-03-04T06:45:28.278Z,0.0
2019-03-04T06:48:29.033Z,0.0
2019-03-04T06:51:38.775Z,0.03
2019-03-04T06:55:40.980Z,0.05
2019-03-04T06:57:33.081Z,0.0
2019-03-04T07:00:54.296Z,0.01
2019-03-04T07:03:34.961Z,0.05
2019-03-04T07:06:28.720Z,0.0
2019-03-04T07:09:28.569Z,0.08
2019-03-04T07:12:28.440Z,0.12
2019-03-04T07:15:28.167Z,0.13
2019-03-04T07:18:28.885Z,0.12
2019-03-04T07:21:28.738Z,0.09
2019-03-04T07:24:28.322Z,0.1
2019-03-04T07:27:28.894Z,0.06
2019-03-04T07:30:28.643Z,0.16
2019-03-04T07:33:28.461Z,0.11
2019-03-04T07:36:28.387Z,0.13
2019-03-04T07:39:28.997Z,0.07
2019-03-04T07:42:28.816Z,0.08
2019-03-04T07:45:29.131Z,0.18
2019-03-04T07:48:28.841Z,0.16
2019-03-04T07:51:29.462Z,0.14
2019-03-04T07:54:28.723Z,0.14
2019-03-04T07:57:28.413Z,0.18
2019-03-04T08:00:29.121Z,0.18
2019-03-04T08:03:28.699Z,0.24
2019-03-04T08:06:28.704Z,0.37
2019-03-04T08:09:49.713Z,0.9
2019-03-04T08:13:00.162Z,0.46
2019-03-04T08:15:32.391Z,0.38
2019-03-04T08:18:28.203Z,0.24
2019-03-04T08:21:29.318Z,0.21
2019-03-04T08:24:29.212Z,0.09
2019-03-04T08:27:29.002Z,0.04
2019-03-04T08:30:29.231Z,0.06
2019-03-04T08:33:29.005Z,0.14
2019-03-04T08:36:28.845Z,0.26
2019-03-04T08:39:28.986Z,0.25
2019-03-04T08:42:28.641Z,0.28
2019-03-04T08:45:28.321Z,0.11
2019-03-04T08:48:29.118Z,0.31
2019-03-04T08:51:28.898Z,0.29
2019-03-04T08:54:29.388Z,0.24
2019-03-04T08:57:29.371Z,0.28
2019-03-04T09:00:30.234Z,0.26
2019-03-04T09:03:28.954Z,0.24
2019-03-04T09:06:28.700Z,0.31
2019-03-04T09:09:28.699Z,0.76
2019-03-04T09:12:28.432Z,0.44
2019-03-04T09:15:29.822Z,0.38
2019-03-04T09:18:28.867Z,0.49
2019-03-04T09:21:28.724Z,0.47
2019-03-04T09:24:28.801Z,0.56
2019-03-04T09:27:28.427Z,0.61
2019-03-04T09:30:28.396Z,0.39
2019-03-04T09:33:29.347Z,1.26
2019-03-04T09:36:28.354Z,1.09
2019-03-04T09:39:29.198Z,1.29
2019-03-04T09:42:29.830Z,0.21
2019-03-04T09:45:37.996Z,1.32
2019-03-04T09:48:28.932Z,0.86
2019-03-04T09:51:37.998Z,0.92
2019-03-04T09:54:28.855Z,0.61
2019-03-04T09:57:28.474Z,0.86
2019-03-04T10:00:34.003Z,1.36
2019-03-04T10:05:38.218Z,0.58
2019-03-04T10:06:37.659Z,0.61
2019-03-04T10:09:55.023Z,0.59
2019-03-04T10:13:16.454Z,0.53
2019-03-04T10:15:44.749Z,0.61
2019-03-04T10:18:37.103Z,0.41
2019-03-04T10:21:36.968Z,0.26
2019-03-04T10:26:37.588Z,0.15
2019-03-04T10:27:33.363Z,0.29
2019-03-04T10:30:38.262Z,0.43
2019-03-04T10:33:54.458Z,0.31
2019-03-04T10:36:42.026Z,0.16
2019-03-04T10:39:49.947Z,0.23
2019-03-04T10:42:51.074Z,0.13
2019-03-04T10:45:43.129Z,0.12
2019-03-04T10:48:28.811Z,0.11
2019-03-04T10:51:28.830Z,0.29
2019-03-04T10:54:28.681Z,0.34
2019-03-04T10:57:28.564Z,0.28
2019-03-04T11:00:28.871Z,1.04
2019-03-04T11:03:28.634Z,0.81
2019-03-04T11:06:28.374Z,0.26
2019-03-04T11:09:30.798Z,0.49
2019-03-04T11:12:28.549Z,0.62
2019-03-04T11:15:28.828Z,0.42
2019-03-04T11:18:28.582Z,0.72
2019-03-04T11:21:29.843Z,1.02
2019-03-04T11:24:28.825Z,1.57
2019-03-04T11:27:28.729Z,0.45
2019-03-04T11:30:31.172Z,0.87
2019-03-04T11:33:29.000Z,0.39
2019-03-04T11:36:28.694Z,0.42
2019-03-04T11:40:04.637Z,0.54
2019-03-04T11:42:28.482Z,0.62
2019-03-04T11:45:29.135Z,0.71
2019-03-04T11:48:28.973Z,0.6
2019-03-04T11:51:28.573Z,0.59
2019-03-04T11:54:28.534Z,0.67
2019-03-04T11:57:28.471Z,0.64
2019-03-04T12:00:35.458Z,0.46
2019-03-04T12:03:28.261Z,0.49
2019-03-04T12:06:29.049Z,0.45
2019-03-04T12:09:29.047Z,0.51
2019-03-04T12:12:28.764Z,0.45
2019-03-04T12:15:28.670Z,0.42
2019-03-04T12:18:28.642Z,0.44
2019-03-04T12:21:28.513Z,0.37
2019-03-04T12:24:28.285Z,0.47
2019-03-04T12:27:28.509Z,0.41
2019-03-04T12:30:28.527Z,0.38
2019-03-04T12:33:28.458Z,0.39
2019-03-04T12:36:28.492Z,0.61
2019-03-04T12:39:28.582Z,0.33
2019-03-04T12:42:28.415Z,0.32
2019-03-04T12:45:34.287Z,0.14
2019-03-04T12:48:28.691Z,0.17
2019-03-04T12:51:36.764Z,0.15
2019-03-04T12:54:28.603Z,0.32
2019-03-04T12:57:28.349Z,0.43
2019-03-04T13:00:29.318Z,0.36
2019-03-04T13:03:29.030Z,0.43
2019-03-04T13:06:28.634Z,0.37
2019-03-04T13:09:28.505Z,0.35
2019-03-04T13:12:28.219Z,0.36
2019-03-04T13:15:31.395Z,0.46
2019-03-04T13:18:28.386Z,0.5
2019-03-04T13:21:29.364Z,0.46
2019-03-04T13:24:29.121Z,0.49
2019-03-04T13:27:37.394Z,0.28
2019-03-04T13:30:29.580Z,0.38
2019-03-04T13:33:28.296Z,0.2
2019-03-04T13:36:29.127Z,0.17
2019-03-04T13:39:30.581Z,0.09
2019-03-04T13:42:28.315Z,0.05
2019-03-04T13:45:29.297Z,0.09
2019-03-04T13:48:28.892Z,0.04
2019-03-04T13:51:28.733Z,0.07
2019-03-04T13:54:28.800Z,0.13
2019-03-04T13:57:28.853Z,0.11
2019-03-04T14:00:28.704Z,0.1
2019-03-04T14:03:30.617Z,0.08
2019-03-04T14:06:28.968Z,0.1
2019-03-04T14:09:29.153Z,0.11
2019-03-04T14:12:28.990Z,0.18
2019-03-04T14:15:32.864Z,0.18
2019-03-04T14:18:28.702Z,0.21
2019-03-04T14:21:28.359Z,0.21
2019-03-04T14:24:28.982Z,0.07
2019-03-04T14:27:28.742Z,0.06
2019-03-04T14:30:28.650Z,0.09
2019-03-04T14:33:28.220Z,0.07
2019-03-04T14:36:28.839Z,0.04
2019-03-04T14:39:28.509Z,0.02
2019-03-04T14:42:28.336Z,0.01
2019-03-04T14:45:29.163Z,0.08
2019-03-04T14:48:31.499Z,0.06
2019-03-04T14:51:28.300Z,0.05
2019-03-04T14:54:29.041Z,0.11
2019-03-04T14:57:28.788Z,0.12
2019-03-04T15:00:32.988Z,0.25
2019-03-04T15:03:36.569Z,0.24
2019-03-04T15:06:28.305Z,0.21
2019-03-04T15:09:29.280Z,0.11
2019-03-04T15:12:29.133Z,0.11
2019-03-04T15:15:29.447Z,0.05
2019-03-04T15:18:35.063Z,0.05
2019-03-04T15:21:29.142Z,0.11
2019-03-04T15:24:29.455Z,0.06
2019-03-04T15:27:28.254Z,0.11
2019-03-04T15:30:29.065Z,0.07
2019-03-04T15:33:32.165Z,0.1
2019-03-04T15:36:28.853Z,0.11
2019-03-04T15:39:36.598Z,0.13
2019-03-04T15:42:28.367Z,0.12
2019-03-04T15:45:29.287Z,0.11
2019-03-04T15:48:29.620Z,0.15
2019-03-04T15:51:28.395Z,0.15
2019-03-04T15:54:29.058Z,0.1
2019-03-04T15:57:28.685Z,0.13
2019-03-04T16:00:28.680Z,0.07
2019-03-04T16:03:28.382Z,0.1
2019-03-04T16:06:28.697Z,0.1
2019-03-04T16:09:29.899Z,0.05
2019-03-04T16:12:29.311Z,0.05
2019-03-04T16:15:28.930Z,0.09
2019-03-04T16:18:28.656Z,0.08
2019-03-04T16:21:28.710Z,0.03
2019-03-04T16:24:28.286Z,0.07
2019-03-04T16:27:29.043Z,0.06
2019-03-04T16:30:28.831Z,0.06
2019-03-04T16:33:28.501Z,0.06
2019-03-04T16:36:28.486Z,0.06
2019-03-04T16:39:28.401Z,0.01
2019-03-04T16:42:29.133Z,0.04
2019-03-04T16:45:28.845Z,0.0
2019-03-04T16:48:28.603Z,0.03
2019-03-04T16:51:28.484Z,0.0
2019-03-04T16:54:29.230Z,0.0
2019-03-04T16:57:29.149Z,0.0
2019-03-04T17:00:28.836Z,0.02
2019-03-04T17:03:28.531Z,0.02
2019-03-04T17:06:28.287Z,0.0
2019-03-04T17:09:29.017Z,0.0
2019-03-04T17:12:28.878Z,0.01
2019-03-04T17:15:28.786Z,0.0
2019-03-04T17:18:30.909Z,0.0
2019-03-04T17:21:28.641Z,0.0
2019-03-04T17:24:28.480Z,0.0
2019-03-04T17:27:29.044Z,0.0
2019-03-04T17:30:29.635Z,0.0
2019-03-04T17:33:28.502Z,0.0
2019-03-04T17:36:28.479Z,0.0
2019-03-04T17:39:30.143Z,0.0
2019-03-04T17:42:28.975Z,0.0
2019-03-04T17:45:28.895Z,0.0
2019-03-04T17:48:28.714Z,0.0
2019-03-04T17:51:28.577Z,0.0
2019-03-04T17:54:28.522Z,0.0
2019-03-04T17:57:28.482Z,0.0
2019-03-04T18:00:29.227Z,0.0
2019-03-04T18:03:29.060Z,0.0
2019-03-04T18:06:28.916Z,0.0
2019-03-04T18:09:28.799Z,0.0
2019-03-04T18:12:28.627Z,0.0
2019-03-04T18:15:33.477Z,0.0
2019-03-04T18:18:28.273Z,0.0
2019-03-04T18:21:29.102Z,0.0
2019-03-04T18:24:28.904Z,0.0
2019-03-04T18:27:32.986Z,0.0
2019-03-04T18:31:00.399Z,0.0
2019-03-04T18:35:45.356Z,0.0
2019-03-04T18:36:55.254Z,0.0
2019-03-04T18:39:52.556Z,0.0
2019-03-04T18:42:41.334Z,0.0
2019-03-04T18:47:32.055Z,0.0
2019-03-04T18:48:43.124Z,0.0
2019-03-04T18:51:30.333Z,0.0
2019-03-04T18:54:28.183Z,0.0
2019-03-04T18:57:28.900Z,0.0
2019-03-04T19:00:29.234Z,0.0
2019-03-04T19:03:28.956Z,0.0
2019-03-04T19:06:28.702Z,0.0
2019-03-04T19:09:28.365Z,0.0
2019-03-04T19:12:29.193Z,0.0
2019-03-04T19:15:28.973Z,0.0
2019-03-04T19:18:28.714Z,0.0
2019-03-04T19:21:28.506Z,0.0
2019-03-04T19:24:28.200Z,0.0
2019-03-04T19:27:28.934Z,0.0
2019-03-04T19:30:28.800Z,0.0
2019-03-04T19:33:28.458Z,0.0
2019-03-04T19:36:28.290Z,0.0
2019-03-04T19:39:29.096Z,0.0
2019-03-04T19:42:28.776Z,0.0
2019-03-04T19:45:28.613Z,0.0
2019-03-04T19:48:28.436Z,0.0
2019-03-04T19:51:28.255Z,0.0
2019-03-04T19:54:29.220Z,0.0
2019-03-04T19:57:29.223Z,0.0
2019-03-04T20:00:31.059Z,0.0
2019-03-04T20:03:28.844Z,0.0
2019-03-04T20:06:28.672Z,0.0
2019-03-04T20:09:28.648Z,0.0
2019-03-04T20:12:30.181Z,0.0
2019-03-04T20:15:28.967Z,0.0
2019-03-04T20:18:28.967Z,0.0
2019-03-04T20:21:28.872Z,0.0
2019-03-04T20:24:28.566Z,0.0
2019-03-04T20:27:28.732Z,0.0
2019-03-04T20:30:28.592Z,0.0
2019-03-04T20:33:28.398Z,0.0
2019-03-04T20:36:29.101Z,0.0
2019-03-04T20:39:28.860Z,0.0
2019-03-04T20:42:28.715Z,0.0
2019-03-04T20:45:29.041Z,0.0
2019-03-04T20:48:28.569Z,0.0
2019-03-04T20:51:28.534Z,0.0
2019-03-04T20:54:28.349Z,0.0
2019-03-04T20:57:29.255Z,0.0
2019-03-04T21:00:34.668Z,0.0
2019-03-04T21:03:34.788Z,0.0
2019-03-04T21:06:28.456Z,0.0
2019-03-04T21:09:29.064Z,0.0
2019-03-04T21:12:28.918Z,0.0
2019-03-04T21:15:29.869Z,0.0
2019-03-04T21:18:28.873Z,0.0
2019-03-04T21:21:28.812Z,0.0
2019-03-04T21:24:28.647Z,0.0
2019-03-04T21:27:28.193Z,0.0
2019-03-04T21:31:47.707Z,0.0
2019-03-04T21:33:50.658Z,0.0
2019-03-04T21:37:07.440Z,0.0
2019-03-04T21:39:37.723Z,0.0
2019-03-04T21:42:40.445Z,0.0
2019-03-04T21:45:43.336Z,0.0
2019-03-04T21:48:35.406Z,0.0
2019-03-04T21:51:38.706Z,0.0
2019-03-04T21:54:28.533Z,0.0
2019-03-04T21:57:32.760Z,0.0
2019-03-04T22:00:39.349Z,0.0
2019-03-04T22:03:37.634Z,0.0
2019-03-04T22:06:28.329Z,0.0
2019-03-04T22:09:30.029Z,0.0
2019-03-04T22:12:30.585Z,0.0
2019-03-04T22:15:29.274Z,0.0
2019-03-04T22:18:29.081Z,0.0
2019-03-04T22:21:30.327Z,0.0
2019-03-04T22:24:29.102Z,0.0
2019-03-04T22:27:28.874Z,0.0
2019-03-04T22:30:28.614Z,0.0
2019-03-04T22:33:28.569Z,0.0
2019-03-04T22:36:28.259Z,0.0
2019-03-04T22:39:28.910Z,0.0
2019-03-04T22:42:28.552Z,0.0
2019-03-04T22:45:28.314Z,0.0
2019-03-04T22:48:29.004Z,0.0
2019-03-04T22:51:28.636Z,0.0
2019-03-04T22:54:28.344Z,0.0
2019-03-04T22:57:28.938Z,0.0
2019-03-04T23:02:02.339Z,0.0
2019-03-04T23:03:29.014Z,0.0
2019-03-04T23:06:30.031Z,0.0
2019-03-04T23:09:30.938Z,0.0
2019-03-04T23:12:37.274Z,0.0
2019-03-04T23:15:29.008Z,0.0
2019-03-04T23:18:28.960Z,0.0
2019-03-04T23:21:28.631Z,0.0
2019-03-04T23:24:28.351Z,0.0
2019-03-04T23:27:28.905Z,0.0
2019-03-04T23:30:28.360Z,0.0
2019-03-04T23:33:29.007Z,0.0
2019-03-04T23:36:28.676Z,0.0
2019-03-04T23:39:28.235Z,0.0
2019-03-04T23:42:29.021Z,0.0
2019-03-04T23:45:28.599Z,0.0
2019-03-04T23:48:28.271Z,0.0
2019-03-04T23:51:28.913Z,0.0
2019-03-04T23:54:28.608Z,0.0
2019-03-04T23:57:28.279Z,0.0
